createdAt,value
2022-09-21T04:26:09.124Z,73.46
2022-09-21T04:35:08.788Z,73.18
2022-09-21T04:47:30.800Z,73.23
2022-09-21T04:49:59.060Z,73.76
2022-09-21T04:52:28.517Z,73.41
2022-09-21T04:54:59.696Z,73.46
2022-09-21T04:57:30.743Z,73.40
2022-09-21T04:59:58.867Z,73.31
2022-09-21T05:02:26.802Z,73.43
2022-09-21T05:04:55.696Z,73.17
2022-09-21T05:07:26.459Z,73.57
2022-09-21T05:10:04.751Z,73.46
2022-09-21T05:12:33.844Z,73.57
2022-09-21T05:15:02.365Z,73.30
2022-09-21T05:17:30.364Z,73.46
2022-09-21T05:19:58.374Z,73.66
2022-09-21T05:38:15.348Z,72.98
2022-09-21T06:12:42.024Z,62.72
2022-09-21T06:15:14.583Z,61.81
2022-09-21T06:17:43.193Z,60.12
2022-09-21T06:20:11.404Z,58.29
2022-09-21T06:22:39.105Z,56.89
2022-09-21T06:25:08.153Z,56.07
2022-09-21T06:28:04.513Z,54.60
2022-09-21T06:30:45.057Z,51.66
2022-09-21T06:33:20.743Z,48.94
2022-09-21T06:35:54.358Z,47.33
2022-09-21T06:38:23.133Z,45.42
2022-09-21T06:40:52.641Z,43.66
2022-09-21T06:43:22.124Z,43.24
2022-09-21T06:45:57.288Z,42.60
2022-09-21T06:48:30.994Z,40.74
2022-09-21T06:51:02.856Z,38.93
2022-09-21T06:57:50.553Z,36.35
2022-09-21T07:01:08.277Z,34.66
2022-09-21T07:03:39.859Z,33.34
2022-09-21T07:06:09.161Z,31.70
2022-09-21T07:11:33.607Z,36.18
2022-09-21T07:14:04.206Z,38.24
2022-09-21T07:16:35.770Z,39.89
2022-09-21T07:19:11.355Z,40.86
2022-09-21T07:21:40.590Z,38.63
2022-09-21T07:24:12.201Z,35.38
2022-09-21T07:26:41.203Z,33.42
2022-09-21T07:29:09.323Z,33.32
2022-09-21T07:31:39.222Z,33.40
2022-09-21T07:34:07.317Z,35.31
2022-09-21T07:36:35.299Z,37.06
2022-09-21T07:39:04.012Z,38.35
2022-09-21T07:41:32.006Z,40.31
2022-09-21T07:43:59.978Z,42.40
2022-09-21T07:46:27.989Z,43.56
2022-09-21T07:48:57.853Z,44.06
2022-09-21T07:51:26.050Z,44.32
2022-09-21T07:53:57.375Z,44.51
2022-09-21T07:56:25.979Z,45.79
2022-09-21T07:59:07.928Z,46.49
2022-09-21T08:01:38.097Z,46.26
2022-09-21T08:04:09.200Z,47.07
2022-09-21T08:06:40.191Z,46.97
2022-09-21T08:09:08.710Z,47.82
2022-09-21T08:11:38.365Z,48.40
2022-09-21T08:14:06.501Z,48.45
2022-09-21T08:16:35.848Z,48.57
2022-09-21T08:19:05.339Z,48.69
2022-09-21T08:21:34.653Z,48.11
2022-09-21T08:24:02.945Z,46.74
2022-09-21T08:26:30.976Z,46.19
2022-09-21T08:28:59.111Z,43.95
2022-09-21T08:31:30.896Z,42.62
2022-09-21T08:34:02.755Z,39.09
2022-09-21T08:36:30.734Z,35.31
2022-09-21T08:39:00.073Z,33.21
2022-09-21T08:41:49.257Z,33.43
2022-09-21T08:44:21.278Z,33.09
2022-09-21T08:46:57.756Z,32.98
2022-09-21T08:49:28.882Z,30.34
2022-09-21T08:52:02.596Z,27.78
2022-09-21T08:54:39.314Z,24.93
2022-09-21T08:57:12.939Z,22.80
2022-09-21T08:59:44.322Z,22.15
2022-09-21T09:02:35.877Z,21.84
2022-09-21T09:05:19.455Z,20.33
2022-09-21T09:08:12.040Z,20.00
2022-09-21T09:10:50.863Z,18.46
2022-09-21T09:13:36.722Z,17.80
2022-09-21T09:16:15.994Z,17.55
2022-09-21T09:18:50.060Z,15.79
2022-09-21T09:21:30.845Z,16.05
2022-09-21T09:24:03.648Z,15.61
2022-09-21T09:26:42.764Z,15.26
2022-09-21T09:29:22.112Z,14.63
2022-09-21T09:31:54.862Z,14.46
2022-09-21T09:34:31.236Z,14.48
2022-09-21T09:37:04.883Z,13.98
2022-09-21T09:39:37.065Z,13.80
2022-09-21T09:42:41.407Z,14.25
2022-09-21T09:45:35.719Z,14.38
2022-09-21T09:48:27.947Z,13.32
2022-09-21T09:50:57.701Z,13.39
2022-09-21T09:53:28.880Z,12.63
2022-09-21T09:56:00.332Z,12.54
2022-09-21T09:58:39.848Z,12.95
2022-09-21T10:01:09.784Z,12.48
2022-09-21T10:03:38.428Z,12.27
2022-09-21T10:06:06.886Z,12.54
2022-09-21T10:08:44.343Z,12.49
2022-09-21T10:11:15.030Z,12.30
2022-09-21T10:13:47.560Z,12.42
2022-09-21T10:16:23.358Z,12.32
2022-09-21T10:18:56.387Z,12.12
2022-09-21T10:21:51.303Z,12.28
2022-09-21T10:24:24.560Z,11.75
2022-09-21T10:26:56.164Z,11.38
2022-09-21T10:30:00.139Z,11.63
2022-09-21T10:32:31.758Z,11.10
2022-09-21T10:35:15.235Z,10.81
2022-09-21T10:37:49.043Z,10.26
2022-09-21T10:40:30.856Z,10.50
2022-09-21T10:43:01.667Z,9.50
2022-09-21T10:45:32.681Z,10.07
2022-09-21T10:48:09.799Z,9.68
2022-09-21T10:50:40.102Z,9.22
2022-09-21T10:53:23.949Z,9.95
2022-09-21T10:56:15.012Z,11.58
2022-09-21T10:59:13.838Z,16.23
2022-09-21T11:01:47.592Z,16.08
2022-09-21T11:04:21.447Z,19.10
2022-09-21T11:06:55.919Z,20.54
2022-09-21T11:09:27.880Z,20.06
2022-09-21T11:15:03.240Z,13.90
2022-09-21T11:17:37.984Z,10.96
2022-09-21T11:20:17.117Z,10.98
2022-09-21T11:22:57.356Z,9.40
2022-09-21T11:25:33.680Z,10.45
2022-09-21T11:28:13.869Z,10.07
2022-09-21T11:31:01.868Z,9.75
2022-09-21T11:33:49.546Z,8.93
2022-09-21T11:36:29.862Z,10.05
2022-09-21T11:39:03.614Z,9.26
2022-09-21T11:41:55.566Z,9.27
2022-09-21T11:44:40.909Z,9.35
2022-09-21T11:47:35.813Z,12.08
2022-09-21T11:50:32.499Z,12.57
2022-09-21T11:53:25.417Z,11.50
2022-09-21T11:56:35.200Z,11.00
2022-09-21T11:59:19.134Z,10.97
2022-09-21T12:02:06.672Z,10.07
2022-09-21T12:04:45.559Z,8.96
2022-09-21T12:07:27.184Z,9.68
2022-09-21T12:10:10.900Z,9.71
2022-09-21T12:12:46.082Z,11.55
2022-09-21T12:15:21.492Z,11.68
2022-09-21T12:17:58.434Z,13.21
2022-09-21T12:20:36.413Z,15.86
2022-09-21T12:23:12.598Z,17.50
2022-09-21T12:25:45.433Z,18.83
2022-09-21T12:28:25.532Z,22.23
2022-09-21T12:31:00.760Z,22.28
2022-09-21T12:33:36.662Z,23.57
2022-09-21T12:36:12.086Z,24.15
2022-09-21T12:38:45.912Z,24.74
2022-09-21T12:41:19.836Z,26.24
2022-09-21T12:43:52.947Z,27.41
2022-09-21T12:46:25.110Z,27.25
2022-09-21T12:48:54.173Z,27.76
2022-09-21T12:51:28.385Z,28.28
2022-09-21T12:54:00.930Z,28.81
2022-09-21T12:56:40.376Z,28.91
2022-09-21T13:54:58.554Z,30.39
2022-09-21T14:03:16.118Z,31.31
2022-09-21T14:16:02.777Z,33.21
2022-09-21T14:19:29.732Z,32.06
2022-09-21T14:22:31.056Z,31.19
2022-09-21T19:56:58.680Z,65.98
2022-09-21T20:10:03.950Z,66.28
2022-09-21T20:12:54.105Z,66.75
2022-09-21T20:15:29.513Z,67.42
2022-09-21T20:18:09.469Z,67.36
2022-09-21T20:20:44.132Z,67.78
2022-09-21T20:23:14.726Z,67.64
2022-09-21T20:25:52.637Z,67.74
2022-09-21T20:28:23.830Z,67.73
2022-09-21T20:30:54.795Z,67.80
2022-09-21T20:33:27.100Z,67.97
2022-09-21T20:35:56.054Z,67.98
2022-09-21T20:38:25.152Z,67.65
2022-09-21T20:40:59.680Z,67.89
2022-09-21T20:43:32.776Z,67.81
2022-09-21T20:46:02.815Z,67.95
2022-09-21T20:48:32.216Z,67.96
2022-09-21T20:51:04.511Z,67.87
2022-09-21T21:01:28.786Z,68.10
2022-09-21T21:04:01.888Z,68.43
2022-09-21T21:06:32.555Z,68.27
2022-09-21T21:09:00.978Z,68.57
2022-09-21T21:11:29.131Z,68.77
2022-09-21T21:13:59.194Z,68.73
2022-09-21T21:16:27.371Z,68.87
2022-09-21T21:18:56.496Z,68.55
2022-09-21T21:21:24.583Z,68.96
2022-09-21T21:24:10.965Z,68.74
2022-09-21T21:27:00.658Z,68.96
2022-09-21T21:29:29.015Z,69.04
2022-09-21T21:31:56.986Z,69.06
2022-09-21T21:34:25.063Z,69.05
2022-09-21T21:36:53.763Z,69.14
2022-09-21T21:39:21.870Z,69.21
2022-09-21T21:41:49.972Z,69.32
2022-09-21T21:44:18.182Z,69.33
2022-09-21T21:46:47.952Z,69.43
2022-09-21T21:49:16.059Z,69.58
2022-09-21T21:51:57.808Z,69.41
2022-09-21T21:54:27.615Z,69.65
2022-09-21T21:56:56.126Z,69.84
2022-09-21T21:59:25.480Z,69.54
2022-09-21T22:01:55.407Z,69.58
2022-09-21T22:04:27.650Z,69.59
2022-09-21T22:06:56.152Z,69.61
2022-09-21T22:09:24.202Z,69.56
2022-09-21T22:11:52.326Z,69.97
2022-09-21T22:14:20.577Z,69.95
2022-09-21T22:16:48.590Z,69.93
2022-09-21T22:19:18.403Z,69.88
2022-09-21T22:21:51.707Z,69.84
2022-09-21T22:24:22.666Z,69.96
2022-09-21T22:26:51.191Z,69.87
2022-09-21T22:29:19.286Z,70.06
2022-09-21T22:31:50.727Z,69.94
2022-09-21T22:34:20.978Z,70.19
